createdAt,value
2022-11-10T00:01:32.033Z,80.28
2022-11-10T00:03:35.918Z,81.27
2022-11-10T00:05:39.074Z,88.97
2022-11-10T00:07:41.458Z,85.40
2022-11-10T00:09:43.276Z,79.00
2022-11-10T00:11:46.378Z,83.55
2022-11-10T00:14:07.432Z,82.15
2022-11-10T00:16:29.051Z,78.95
2022-11-10T00:18:31.260Z,81.18
2022-11-10T00:20:33.084Z,80.50
2022-11-10T00:22:35.846Z,84.22
2022-11-10T00:24:38.026Z,85.70
2022-11-10T00:26:39.840Z,78.72
2022-11-10T00:28:42.393Z,84.18
2022-11-10T00:30:46.775Z,82.63
2022-11-10T00:32:48.971Z,78.22
2022-11-10T00:34:50.810Z,86.10
2022-11-10T00:36:53.091Z,80.82
2022-11-10T00:38:55.123Z,89.53
2022-11-10T00:40:58.943Z,94.05
2022-11-10T00:43:01.480Z,90.05
2022-11-10T00:45:03.532Z,87.30
2022-11-10T00:47:05.733Z,80.47
2022-11-10T00:49:07.895Z,84.40
2022-11-10T00:51:26.319Z,87.57
2022-11-10T00:53:28.124Z,84.70
2022-11-10T00:55:30.408Z,78.90
2022-11-10T00:57:32.327Z,82.78
2022-11-10T00:59:34.209Z,89.15
2022-11-10T01:01:37.091Z,86.68
2022-11-10T01:03:39.223Z,82.20
2022-11-10T01:05:41.862Z,86.67
2022-11-10T01:09:45.817Z,83.80
2022-11-10T01:11:47.610Z,85.95
2022-11-10T01:13:51.739Z,79.63
2022-11-10T01:15:53.533Z,87.50
2022-11-10T01:17:56.890Z,83.40
2022-11-10T01:19:59.012Z,84.35
2022-11-10T01:22:01.873Z,88.28
2022-11-10T01:24:03.896Z,83.57
2022-11-10T01:26:07.192Z,86.38
2022-11-10T01:30:11.364Z,85.25
2022-11-10T01:32:13.521Z,84.85
2022-11-10T01:34:15.623Z,84.77
2022-11-10T01:36:17.729Z,82.38
2022-11-10T01:38:19.930Z,84.40
2022-11-10T01:40:21.818Z,84.63
2022-11-10T01:42:28.973Z,85.55
2022-11-10T01:44:31.166Z,86.10
2022-11-10T01:46:33.092Z,85.28
2022-11-10T01:48:47.053Z,80.93
2022-11-10T01:50:49.621Z,81.63
2022-11-10T01:52:55.049Z,84.40
2022-11-10T01:54:56.933Z,79.88
2022-11-10T01:57:05.261Z,77.28
2022-11-10T01:59:12.200Z,82.95
2022-11-10T02:01:14.536Z,79.97
2022-11-10T02:03:29.488Z,80.90
2022-11-10T02:05:31.976Z,82.20
2022-11-10T02:07:34.368Z,77.90
2022-11-10T02:09:36.871Z,81.75
2022-11-10T02:11:40.481Z,86.27
2022-11-10T02:13:43.152Z,81.95
2022-11-10T02:17:48.347Z,74.80
2022-11-10T02:19:51.670Z,80.72
2022-11-10T02:21:53.890Z,80.50
2022-11-10T02:23:55.754Z,84.07
2022-11-10T02:25:58.528Z,80.38
2022-11-10T02:28:00.687Z,79.53
2022-11-10T02:30:05.247Z,82.13
2022-11-10T02:32:07.104Z,81.90
2022-11-10T02:34:09.279Z,80.47
2022-11-10T02:36:11.697Z,75.45
2022-11-10T02:38:14.359Z,84.93
2022-11-10T02:42:18.318Z,85.57
2022-11-10T02:44:20.616Z,86.30
2022-11-10T02:46:23.121Z,83.60
2022-11-10T02:48:24.919Z,79.20
2022-11-10T02:50:27.037Z,78.47
2022-11-10T02:52:29.505Z,86.93
2022-11-10T02:54:31.352Z,85.27
2022-11-10T02:56:33.149Z,82.60
2022-11-10T02:58:35.286Z,74.72
2022-11-10T03:00:37.154Z,80.97
2022-11-10T03:02:39.269Z,84.33
2022-11-10T03:04:41.675Z,82.80
2022-11-10T03:06:43.883Z,86.30
2022-11-10T03:08:46.292Z,83.43
2022-11-10T03:10:48.531Z,81.63
2022-11-10T03:12:55.420Z,82.53
2022-11-10T03:14:57.460Z,84.10
2022-11-10T03:16:59.829Z,87.05
2022-11-10T03:19:01.721Z,81.43
2022-11-10T03:21:03.659Z,83.20
2022-11-10T03:23:06.360Z,76.18
2022-11-10T03:25:09.041Z,75.43
2022-11-10T03:27:10.822Z,82.78
2022-11-10T03:29:12.962Z,78.53
2022-11-10T03:31:14.743Z,78.05
2022-11-10T03:33:17.022Z,74.72
2022-11-10T03:35:19.255Z,83.25
2022-11-10T03:37:21.042Z,75.43
2022-11-10T03:39:24.438Z,79.05
2022-11-10T03:41:26.602Z,84.32
2022-11-10T03:43:28.393Z,80.15
2022-11-10T03:45:30.198Z,83.20
2022-11-10T03:47:32.401Z,87.25
2022-11-10T03:49:34.213Z,79.28
2022-11-10T03:51:36.022Z,79.30
2022-11-10T03:53:38.198Z,79.00
2022-11-10T03:55:39.988Z,75.90
2022-11-10T03:57:41.859Z,81.68
2022-11-10T03:59:44.027Z,80.43
2022-11-10T04:01:46.138Z,86.38
2022-11-10T04:03:51.527Z,86.88
2022-11-10T04:06:12.313Z,81.32
2022-11-10T04:08:35.407Z,82.45
2022-11-10T04:10:37.351Z,83.05
2022-11-10T04:12:57.889Z,88.63
2022-11-10T04:15:18.519Z,85.50
2022-11-10T04:17:20.368Z,84.30
2022-11-10T04:19:22.740Z,81.88
2022-11-10T04:21:24.542Z,81.80
2022-11-10T04:23:35.002Z,83.05
2022-11-10T04:25:57.116Z,77.97
2022-11-10T04:27:58.969Z,85.82
2022-11-10T04:30:00.770Z,79.70
2022-11-10T04:32:03.046Z,84.13
2022-11-10T04:34:07.333Z,81.47
2022-11-10T04:36:11.291Z,79.72
2022-11-10T04:38:13.473Z,79.47
2022-11-10T04:40:15.682Z,85.03
2022-11-10T04:42:17.521Z,83.18
2022-11-10T04:44:19.675Z,81.32
2022-11-10T04:46:34.952Z,86.53
2022-11-10T04:48:36.873Z,83.13
2022-11-10T04:50:39.132Z,87.50
2022-11-10T04:52:40.929Z,83.88
2022-11-10T04:54:43.082Z,84.35
2022-11-10T04:56:45.275Z,85.75
2022-11-10T04:58:48.236Z,86.88
2022-11-10T05:02:52.211Z,82.13
2022-11-10T05:04:54.060Z,86.28
2022-11-10T05:06:56.019Z,85.95
2022-11-10T05:08:58.220Z,87.20
2022-11-10T05:11:00.277Z,88.93
2022-11-10T05:13:03.340Z,90.53
2022-11-10T05:15:06.270Z,93.25
2022-11-10T05:17:08.060Z,86.40
2022-11-10T05:19:10.036Z,96.10
2022-11-10T05:21:12.142Z,93.85
2022-11-10T05:23:32.386Z,87.63
2022-11-10T05:25:36.445Z,90.40
2022-11-10T05:27:38.657Z,90.90
2022-11-10T05:29:40.457Z,94.63
2022-11-10T05:31:42.288Z,94.43
2022-11-10T05:33:44.641Z,99.13
2022-11-10T05:35:49.017Z,94.38
2022-11-10T05:37:51.604Z,96.20
2022-11-10T05:39:53.798Z,105.70
2022-11-10T05:41:55.683Z,98.15
2022-11-10T05:43:57.459Z,98.25
2022-11-10T05:45:59.948Z,100.00
2022-11-10T05:48:01.782Z,103.63
2022-11-10T05:50:04.739Z,99.80
2022-11-10T05:52:06.868Z,94.75
2022-11-10T05:54:09.099Z,100.43
2022-11-10T05:56:10.862Z,98.40
2022-11-10T05:58:13.587Z,99.68
2022-11-10T06:00:18.349Z,99.38
2022-11-10T06:02:20.348Z,98.28
2022-11-10T06:04:22.649Z,102.70
2022-11-10T06:06:25.044Z,105.82
2022-11-10T06:08:26.864Z,102.43
2022-11-10T06:10:29.290Z,104.13
2022-11-10T06:12:31.128Z,105.40
2022-11-10T06:14:33.014Z,99.22
2022-11-10T06:16:35.386Z,104.05
2022-11-10T06:18:37.170Z,106.50
2022-11-10T06:20:39.068Z,98.40
2022-11-10T06:22:41.624Z,109.38
2022-11-10T06:24:43.467Z,102.07
2022-11-10T06:26:45.288Z,105.35
2022-11-10T06:28:47.471Z,110.80
2022-11-10T06:30:49.268Z,113.15
2022-11-10T06:32:51.179Z,96.85
2022-11-10T06:34:57.838Z,96.03
2022-11-10T06:37:02.117Z,101.15
2022-11-10T06:39:07.073Z,100.03
2022-11-10T06:41:09.721Z,105.13
2022-11-10T06:43:11.882Z,93.90
2022-11-10T06:45:13.719Z,101.75
2022-11-10T06:47:16.464Z,102.65
2022-11-10T06:49:18.432Z,111.93
2022-11-10T06:51:20.225Z,107.22
2022-11-10T06:53:26.861Z,102.93
2022-11-10T06:55:29.525Z,100.78
2022-11-10T06:57:38.142Z,110.15
2022-11-10T06:59:40.269Z,98.63
2022-11-10T07:01:42.247Z,93.82
2022-11-10T07:04:05.202Z,101.10
2022-11-10T07:06:06.956Z,96.05
2022-11-10T07:08:17.497Z,99.55
2022-11-10T07:10:19.312Z,98.68
2022-11-10T07:12:21.663Z,97.07
2022-11-10T07:14:23.477Z,89.03
2022-11-10T07:16:25.305Z,99.60
2022-11-10T07:18:27.432Z,100.85
2022-11-10T07:20:30.383Z,93.63
2022-11-10T07:24:34.937Z,94.25
2022-11-10T07:26:36.785Z,97.68
2022-11-10T07:28:39.093Z,94.55
2022-11-10T07:30:41.675Z,99.03
2022-11-10T07:32:43.859Z,89.55
2022-11-10T07:34:46.034Z,98.57
2022-11-10T07:36:48.412Z,86.32
2022-11-10T07:38:50.210Z,101.93
2022-11-10T07:40:53.896Z,92.97
2022-11-10T07:42:56.142Z,96.20
2022-11-10T07:44:57.960Z,85.57
2022-11-10T07:46:59.969Z,92.78
2022-11-10T07:49:02.202Z,88.72
2022-11-10T07:51:04.598Z,87.38
2022-11-10T07:53:08.694Z,88.97
2022-11-10T07:55:11.040Z,91.93
2022-11-10T07:57:12.927Z,90.73
2022-11-10T07:59:14.809Z,82.50
2022-11-10T08:01:17.079Z,85.43
2022-11-10T08:03:21.782Z,83.80
2022-11-10T08:05:24.012Z,87.32
2022-11-10T08:07:26.236Z,83.28
2022-11-10T08:09:28.449Z,85.43
2022-11-10T08:11:30.370Z,87.95
2022-11-10T08:13:32.588Z,88.15
2022-11-10T08:15:35.070Z,89.72
2022-11-10T08:17:36.969Z,87.55
2022-11-10T08:19:39.098Z,83.10
2022-11-10T08:21:40.926Z,82.68
2022-11-10T08:23:42.902Z,79.93
2022-11-10T08:25:46.848Z,88.93
2022-11-10T08:27:48.735Z,80.30
2022-11-10T08:29:50.594Z,81.18
2022-11-10T08:31:53.273Z,82.82
2022-11-10T08:33:55.088Z,86.05
2022-11-10T08:35:56.927Z,80.68
2022-11-10T08:37:59.044Z,82.00
2022-11-10T08:40:00.850Z,78.00
2022-11-10T08:42:02.825Z,80.68
2022-11-10T08:44:08.167Z,79.53
2022-11-10T08:46:12.658Z,76.03
2022-11-10T08:48:16.832Z,77.05
2022-11-10T08:50:19.110Z,75.88
2022-11-10T08:52:20.927Z,69.35
2022-11-10T08:54:22.779Z,69.47
2022-11-10T08:56:24.924Z,65.82
2022-11-10T08:58:26.814Z,74.75
2022-11-10T09:00:30.708Z,70.47
2022-11-10T09:02:32.908Z,73.47
2022-11-10T09:04:34.782Z,72.30
2022-11-10T09:06:36.630Z,67.10
2022-11-10T09:08:38.899Z,69.18
2022-11-10T09:10:51.100Z,68.68
2022-11-10T09:12:52.978Z,66.25
2022-11-10T09:14:55.825Z,74.68
2022-11-10T09:16:57.658Z,70.53
2022-11-10T09:18:59.498Z,68.97
2022-11-10T09:21:03.577Z,65.95
2022-11-10T09:23:13.958Z,71.50
2022-11-10T09:25:16.133Z,83.03
2022-11-10T09:27:18.582Z,71.65
2022-11-10T09:29:21.295Z,74.25
2022-11-10T09:31:23.599Z,65.60
2022-11-10T09:33:26.325Z,66.63
2022-11-10T09:35:28.510Z,69.45
2022-11-10T09:37:30.823Z,69.10
2022-11-10T09:39:33.296Z,66.18
2022-11-10T09:41:40.196Z,67.10
2022-11-10T09:43:58.445Z,67.35
2022-11-10T09:46:04.930Z,65.13
2022-11-10T09:48:31.254Z,62.97
2022-11-10T09:51:11.013Z,62.90
2022-11-10T09:53:21.411Z,65.78
2022-11-10T09:55:52.301Z,63.70
2022-11-10T09:57:57.111Z,66.57
2022-11-10T09:59:59.692Z,57.10
2022-11-10T10:02:16.427Z,64.47
2022-11-10T10:04:56.004Z,60.10
2022-11-10T10:07:22.932Z,64.60
2022-11-10T10:10:00.079Z,66.60
2022-11-10T10:12:28.270Z,58.85
2022-11-10T10:14:58.595Z,65.25
2022-11-10T10:17:04.463Z,60.78
2022-11-10T10:19:14.015Z,63.33
2022-11-10T10:21:49.298Z,58.38
2022-11-10T10:24:15.240Z,60.75
2022-11-10T10:26:21.676Z,59.58
2022-11-10T10:28:23.958Z,55.40
2022-11-10T10:30:26.090Z,61.03
2022-11-10T10:32:28.879Z,60.28
2022-11-10T10:34:34.612Z,53.53
2022-11-10T10:36:36.504Z,51.63
2022-11-10T10:38:40.221Z,52.10
2022-11-10T10:40:44.288Z,52.28
2022-11-10T10:42:46.605Z,53.38
2022-11-10T10:45:18.490Z,48.45
2022-11-10T10:47:36.149Z,47.42
2022-11-10T10:49:37.967Z,47.08
2022-11-10T10:51:40.449Z,44.90
2022-11-10T10:53:47.694Z,46.92
2022-11-10T10:56:02.210Z,49.65
2022-11-10T10:58:20.327Z,48.20
2022-11-10T11:00:23.544Z,44.83
2022-11-10T11:02:29.861Z,48.58
2022-11-10T11:04:37.032Z,43.00
2022-11-10T11:06:39.003Z,41.78
2022-11-10T11:08:58.172Z,42.85
2022-11-10T11:11:11.571Z,45.00
2022-11-10T11:13:27.251Z,43.45
2022-11-10T11:15:30.465Z,43.28
2022-11-10T11:17:32.689Z,43.13
2022-11-10T11:19:37.512Z,39.15
2022-11-10T11:21:50.638Z,46.75
2022-11-10T11:24:10.900Z,43.78
2022-11-10T11:26:50.432Z,41.15
2022-11-10T11:29:21.618Z,34.42
2022-11-10T11:31:43.222Z,39.67
2022-11-10T11:34:10.087Z,35.88
2022-11-10T11:36:46.821Z,37.53
2022-11-10T11:39:04.298Z,42.40
2022-11-10T11:41:30.690Z,41.58
2022-11-10T11:43:57.688Z,37.20
2022-11-10T11:46:12.580Z,34.83
2022-11-10T11:48:39.022Z,39.15
2022-11-10T11:50:50.596Z,39.03
2022-11-10T11:53:19.009Z,36.75
2022-11-10T11:55:34.071Z,38.63
2022-11-10T11:57:44.193Z,38.15
2022-11-10T12:00:06.018Z,39.28
2022-11-10T12:02:50.100Z,37.42
2022-11-10T12:05:13.302Z,37.75
2022-11-10T12:07:35.652Z,38.08
2022-11-10T12:09:46.185Z,33.97
2022-11-10T12:12:13.782Z,37.05
2022-11-10T12:14:34.934Z,38.63
2022-11-10T12:16:38.698Z,34.10
2022-11-10T12:19:22.406Z,36.53
2022-11-10T12:21:28.195Z,33.78
2022-11-10T12:23:47.954Z,38.63
2022-11-10T12:25:59.851Z,34.58
2022-11-10T12:28:14.254Z,31.60
2022-11-10T12:30:17.769Z,32.88
2022-11-10T12:32:28.347Z,33.67
2022-11-10T12:34:48.189Z,31.48
2022-11-10T12:36:51.794Z,35.17
2022-11-10T12:39:01.340Z,35.67
2022-11-10T12:41:11.139Z,37.50
2022-11-10T12:43:44.066Z,32.92
2022-11-10T12:45:51.218Z,33.30
2022-11-10T12:47:54.486Z,29.58
2022-11-10T12:50:11.652Z,39.92
2022-11-10T12:52:13.779Z,31.63
2022-11-10T12:54:17.917Z,33.90
2022-11-10T12:56:31.897Z,32.05
2022-11-10T12:58:34.175Z,35.70
2022-11-10T13:00:44.114Z,31.48
2022-11-10T13:02:46.951Z,31.95
2022-11-10T13:05:10.055Z,31.65
2022-11-10T13:07:13.797Z,30.77
2022-11-10T13:09:29.442Z,31.90
2022-11-10T13:11:34.804Z,29.90
2022-11-10T13:13:59.457Z,29.23
2022-11-10T13:16:01.838Z,30.25
2022-11-10T13:18:05.613Z,32.15
2022-11-10T13:20:39.305Z,30.10
2022-11-10T13:22:41.668Z,30.55
2022-11-10T13:24:44.494Z,25.30
2022-11-10T13:26:49.796Z,31.38
2022-11-10T13:28:51.603Z,26.55
2022-11-10T13:30:53.773Z,29.45
2022-11-10T13:33:15.648Z,30.90
2022-11-10T13:35:29.736Z,26.30
2022-11-10T13:37:34.671Z,31.77
2022-11-10T13:39:36.683Z,29.42
2022-11-10T13:41:48.460Z,26.85
2022-11-10T13:43:53.251Z,34.70
2022-11-10T13:46:03.677Z,31.00
2022-11-10T13:48:11.549Z,30.77
2022-11-10T13:50:28.762Z,29.58
2022-11-10T13:52:43.028Z,30.90
2022-11-10T13:54:58.851Z,30.13
2022-11-10T13:57:11.816Z,30.63
2022-11-10T13:59:28.961Z,30.58
2022-11-10T14:01:30.987Z,32.85
2022-11-10T14:03:45.387Z,35.13
2022-11-10T14:06:04.778Z,32.50
2022-11-10T14:08:09.596Z,31.40
2022-11-10T14:10:17.125Z,31.17
2022-11-10T14:12:28.725Z,32.60
2022-11-10T14:14:35.699Z,35.70
2022-11-10T14:16:42.314Z,30.80
2022-11-10T14:19:22.964Z,37.33
2022-11-10T14:21:33.522Z,31.70
2022-11-10T14:23:45.505Z,33.22
2022-11-10T14:25:55.982Z,32.60
2022-11-10T14:27:58.624Z,30.52
2022-11-10T14:30:24.672Z,30.90
2022-11-10T14:32:27.011Z,34.58
2022-11-10T14:34:30.635Z,34.42
2022-11-10T14:36:33.072Z,37.45
2022-11-10T14:38:37.206Z,34.97
2022-11-10T14:40:41.941Z,38.05
2022-11-10T14:42:45.857Z,35.30
2022-11-10T14:44:48.793Z,38.03
2022-11-10T14:46:51.328Z,37.30
2022-11-10T14:51:07.211Z,37.97
2022-11-10T14:53:20.879Z,39.17
2022-11-10T14:55:27.785Z,44.63
2022-11-10T14:57:29.828Z,40.95
2022-11-10T14:59:31.885Z,42.30
2022-11-10T15:01:38.401Z,36.65
2022-11-10T15:03:42.573Z,42.67
2022-11-10T15:05:44.829Z,42.22
2022-11-10T15:07:47.661Z,39.47
2022-11-10T15:10:30.932Z,42.50
2022-11-10T15:12:35.852Z,42.13
2022-11-10T15:14:45.650Z,38.00
2022-11-10T15:17:04.253Z,43.70
2022-11-10T15:19:26.874Z,42.25
2022-11-10T15:21:34.054Z,45.03
2022-11-10T15:23:40.911Z,49.03
2022-11-10T15:25:42.857Z,41.90
2022-11-10T15:28:00.884Z,43.97
2022-11-10T15:30:19.949Z,41.08
2022-11-10T15:32:24.973Z,43.72
2022-11-10T15:35:06.398Z,41.55
2022-11-10T15:37:31.216Z,43.03
2022-11-10T15:39:33.937Z,45.63
2022-11-10T15:41:36.969Z,42.27
2022-11-10T15:45:43.407Z,44.05
2022-11-10T15:47:46.475Z,38.83
2022-11-10T15:49:48.523Z,38.58
2022-11-10T15:51:53.066Z,38.33
2022-11-10T15:53:55.136Z,38.92
2022-11-10T15:55:57.402Z,40.45
2022-11-10T15:57:59.519Z,38.53
2022-11-10T16:00:01.736Z,39.13
2022-11-10T16:02:25.347Z,41.72
2022-11-10T16:04:27.607Z,40.35
2022-11-10T16:06:30.807Z,37.10
2022-11-10T16:08:34.766Z,41.15
2022-11-10T16:10:37.453Z,40.50
2022-11-10T16:12:39.417Z,41.35
2022-11-10T16:14:45.490Z,38.53
2022-11-10T16:16:47.911Z,38.55
2022-11-10T16:18:51.399Z,38.63
2022-11-10T16:20:53.533Z,32.53
2022-11-10T16:22:55.999Z,34.47
2022-11-10T16:24:57.795Z,36.53
2022-11-10T16:26:59.811Z,41.35
2022-11-10T16:29:02.153Z,35.58
2022-11-10T16:31:08.418Z,37.65
2022-11-10T16:33:18.342Z,38.33
2022-11-10T16:35:21.009Z,38.78
2022-11-10T16:37:22.868Z,33.83
2022-11-10T16:39:25.348Z,33.58
2022-11-10T16:41:27.621Z,33.85
2022-11-10T16:43:31.092Z,36.88
2022-11-10T16:45:33.849Z,34.40
2022-11-10T16:47:36.011Z,35.40
2022-11-10T16:49:44.052Z,37.45
2022-11-10T16:51:49.007Z,39.75
2022-11-10T16:53:53.190Z,38.60
2022-11-10T16:55:55.376Z,32.20
2022-11-10T16:57:57.776Z,37.25
2022-11-10T17:00:00.247Z,43.38
2022-11-10T17:02:02.167Z,34.78
2022-11-10T17:04:10.224Z,39.08
2022-11-10T17:06:14.200Z,40.75
2022-11-10T17:08:23.234Z,31.55
2022-11-10T17:10:25.230Z,39.55
2022-11-10T17:12:27.596Z,41.75
2022-11-10T17:14:29.387Z,34.30
2022-11-10T17:16:35.770Z,39.53
2022-11-10T17:18:38.150Z,37.85
2022-11-10T17:20:41.995Z,36.07
2022-11-10T17:22:44.245Z,38.83
2022-11-10T17:24:56.152Z,38.78
2022-11-10T17:26:58.091Z,43.63
2022-11-10T17:29:01.062Z,43.70
2022-11-10T17:31:03.626Z,40.95
2022-11-10T17:33:06.001Z,41.42
2022-11-10T17:35:08.328Z,40.13
2022-11-10T17:37:13.283Z,42.00
2022-11-10T17:39:16.765Z,40.00
2022-11-10T17:41:20.211Z,43.05
2022-11-10T17:43:23.826Z,53.17
2022-11-10T17:45:28.115Z,45.63
2022-11-10T17:47:30.193Z,47.60
2022-11-10T17:49:32.608Z,51.80
2022-11-10T17:51:36.052Z,51.30
2022-11-10T17:53:38.086Z,51.70
2022-11-10T17:55:40.271Z,45.80
2022-11-10T17:57:42.562Z,45.85
2022-11-10T17:59:44.365Z,48.85
2022-11-10T18:01:46.826Z,45.55
2022-11-10T18:03:50.104Z,50.70
2022-11-10T18:05:52.742Z,49.30
2022-11-10T18:07:55.292Z,48.22
2022-11-10T18:09:57.285Z,52.00
2022-11-10T18:11:59.119Z,52.80
2022-11-10T18:14:02.391Z,55.50
2022-11-10T18:16:05.481Z,43.80
2022-11-10T18:18:11.183Z,53.38
2022-11-10T18:20:14.810Z,49.45
2022-11-10T18:22:16.733Z,51.17
2022-11-10T18:24:18.579Z,53.85
2022-11-10T18:26:20.740Z,56.03
2022-11-10T18:28:22.542Z,53.00
2022-11-10T18:30:24.399Z,57.03
2022-11-10T18:32:26.919Z,52.58
2022-11-10T18:34:28.753Z,53.07
2022-11-10T18:36:30.548Z,61.53
2022-11-10T18:38:32.911Z,59.58
2022-11-10T18:40:34.814Z,55.63
2022-11-10T18:42:36.803Z,64.95
2022-11-10T18:44:39.665Z,51.72
2022-11-10T18:46:41.810Z,58.33
2022-11-10T18:48:45.776Z,65.20
2022-11-10T18:50:47.949Z,64.43
2022-11-10T18:52:49.810Z,64.20
2022-11-10T18:54:51.621Z,64.03
2022-11-10T18:56:54.350Z,62.67
2022-11-10T18:58:57.055Z,71.50
2022-11-10T19:01:06.657Z,68.72
2022-11-10T19:03:09.048Z,63.33
2022-11-10T19:05:11.037Z,60.27
2022-11-10T19:07:12.963Z,65.90
2022-11-10T19:09:15.542Z,61.15
2022-11-10T19:11:20.104Z,65.95
2022-11-10T19:13:23.495Z,63.00
2022-11-10T19:15:25.989Z,64.22
2022-11-10T19:17:27.830Z,64.32
2022-11-10T19:19:29.727Z,66.22
2022-11-10T19:21:32.090Z,84.10
2022-11-10T19:23:34.019Z,70.05
2022-11-10T19:25:35.999Z,63.58
2022-11-10T19:27:38.258Z,68.38
2022-11-10T19:29:40.314Z,66.93
2022-11-10T19:31:42.391Z,70.97
2022-11-10T19:33:46.527Z,70.65
2022-11-10T19:35:48.319Z,64.40
2022-11-10T19:37:53.850Z,75.32
2022-11-10T19:39:56.029Z,67.28
2022-11-10T19:41:57.791Z,67.30
2022-11-10T19:44:00.341Z,70.07
2022-11-10T19:46:04.269Z,63.22
2022-11-10T19:48:06.097Z,65.45
2022-11-10T19:50:08.458Z,61.35
2022-11-10T19:52:10.703Z,62.75
2022-11-10T19:54:13.679Z,69.85
2022-11-10T19:58:19.443Z,66.07
2022-11-10T20:00:21.370Z,64.55
2022-11-10T20:02:23.365Z,64.63
2022-11-10T20:04:26.811Z,65.22
2022-11-10T20:08:31.003Z,72.85
2022-11-10T20:10:33.296Z,67.18
2022-11-10T20:12:35.109Z,63.85
2022-11-10T20:14:36.918Z,68.60
2022-11-10T20:16:39.087Z,67.78
2022-11-10T20:18:41.677Z,68.50
2022-11-10T20:20:43.459Z,75.28
2022-11-10T20:22:45.801Z,68.27
2022-11-10T20:24:51.154Z,66.45
2022-11-10T20:26:53.126Z,68.72
2022-11-10T20:28:55.382Z,70.47
2022-11-10T20:31:00.891Z,67.38
2022-11-10T20:33:05.085Z,71.70
2022-11-10T20:35:07.423Z,72.50
2022-11-10T20:37:09.226Z,64.45
2022-11-10T20:39:11.186Z,68.50
2022-11-10T20:41:19.958Z,74.68
2022-11-10T20:43:22.172Z,81.43
2022-11-10T20:45:24.302Z,62.30
2022-11-10T20:47:28.738Z,70.95
2022-11-10T20:49:31.015Z,69.57
2022-11-10T20:51:32.847Z,69.18
2022-11-10T20:53:35.052Z,70.18
2022-11-10T20:55:53.190Z,68.77
2022-11-10T20:57:55.796Z,64.57
2022-11-10T20:59:58.063Z,68.18
2022-11-10T21:02:00.025Z,62.00
2022-11-10T21:04:02.631Z,68.03
2022-11-10T21:06:06.195Z,65.07
2022-11-10T21:08:08.130Z,63.63
2022-11-10T21:10:10.030Z,62.85
2022-11-10T21:12:31.594Z,62.40
2022-11-10T21:14:33.467Z,65.97
2022-11-10T21:16:35.359Z,66.45
2022-11-10T21:18:37.909Z,70.72
2022-11-10T21:20:39.688Z,68.35
2022-11-10T21:22:41.483Z,63.65
2022-11-10T21:24:43.702Z,62.17
2022-11-10T21:26:45.488Z,70.20
2022-11-10T21:28:47.673Z,67.18
2022-11-10T21:30:50.710Z,67.00
2022-11-10T21:32:52.525Z,77.13
2022-11-10T21:34:54.348Z,71.50
2022-11-10T21:36:56.499Z,68.70
2022-11-10T21:38:59.159Z,72.38
2022-11-10T21:41:00.958Z,62.38
2022-11-10T21:43:03.740Z,76.45
2022-11-10T21:45:06.650Z,74.32
2022-11-10T21:47:09.912Z,70.40
2022-11-10T21:49:12.134Z,67.00
2022-11-10T21:51:16.552Z,72.32
2022-11-10T21:53:18.357Z,72.40
2022-11-10T21:55:20.758Z,71.50
2022-11-10T21:57:22.574Z,69.50
2022-11-10T21:59:24.356Z,71.68
2022-11-10T22:01:26.621Z,70.23
2022-11-10T22:03:29.642Z,67.30
2022-11-10T22:07:38.297Z,67.05
2022-11-10T22:09:58.662Z,67.65
2022-11-10T22:12:18.802Z,75.60
2022-11-10T22:14:39.714Z,64.00
2022-11-10T22:17:08.283Z,68.70
2022-11-10T22:19:10.089Z,65.45
2022-11-10T22:21:12.708Z,69.88
2022-11-10T22:23:14.692Z,65.43
2022-11-10T22:25:16.488Z,68.20
2022-11-10T22:27:18.637Z,64.82
2022-11-10T22:29:21.804Z,62.47
2022-11-10T22:31:23.797Z,65.03
2022-11-10T22:33:28.828Z,67.35
2022-11-10T22:35:46.064Z,60.50
2022-11-10T22:37:47.832Z,58.28
2022-11-10T22:40:08.875Z,59.72
2022-11-10T22:42:32.118Z,55.08
2022-11-10T22:44:33.969Z,58.30
2022-11-10T22:46:48.105Z,62.78
2022-11-10T22:48:50.006Z,54.92
2022-11-10T22:50:59.452Z,55.50
2022-11-10T22:53:01.601Z,53.40
2022-11-10T22:55:03.484Z,61.83
2022-11-10T22:57:05.460Z,53.40
2022-11-10T22:59:08.070Z,55.20
2022-11-10T23:01:11.378Z,53.72
2022-11-10T23:05:16.549Z,58.90
2022-11-10T23:07:18.357Z,51.97
2022-11-10T23:09:20.343Z,50.63
2022-11-10T23:11:25.539Z,52.07
2022-11-10T23:13:27.994Z,54.90
2022-11-10T23:15:34.664Z,55.60
2022-11-10T23:17:36.846Z,52.95
2022-11-10T23:19:38.678Z,57.50
2022-11-10T23:21:40.521Z,55.38
2022-11-10T23:23:43.585Z,53.33
2022-11-10T23:25:55.516Z,58.08
2022-11-10T23:27:57.295Z,51.88
2022-11-10T23:29:59.444Z,57.25
2022-11-10T23:32:01.276Z,58.58
2022-11-10T23:34:03.167Z,57.40
2022-11-10T23:36:06.580Z,56.63
2022-11-10T23:40:10.841Z,54.65
2022-11-10T23:42:13.015Z,61.25
2022-11-10T23:44:14.783Z,63.47
2022-11-10T23:46:16.550Z,55.20
2022-11-10T23:48:19.500Z,58.50
2022-11-10T23:50:21.367Z,59.75
2022-11-10T23:52:23.134Z,53.53
2022-11-10T23:54:25.306Z,59.30
2022-11-10T23:56:27.111Z,59.22
2022-11-10T23:58:29.786Z,60.17
